createdAt,value
2023-05-04T00:01:08.523Z,10.02
2023-05-04T00:06:11.547Z,10.04
2023-05-04T00:11:14.560Z,9.90
2023-05-04T00:16:17.486Z,9.74
2023-05-04T00:21:20.565Z,9.64
2023-05-04T00:26:23.546Z,9.56
2023-05-04T00:31:26.926Z,9.51
2023-05-04T00:36:30.016Z,9.45
2023-05-04T00:41:33.037Z,9.41
2023-05-04T00:46:37.256Z,9.40
2023-05-04T00:51:41.060Z,9.38
2023-05-04T00:56:44.231Z,9.38
2023-05-04T01:01:47.272Z,9.41
2023-05-04T01:07:08.431Z,9.45
2023-05-04T01:12:38.655Z,9.52
2023-05-04T01:17:41.983Z,9.54
2023-05-04T01:22:45.400Z,9.49
2023-05-04T01:28:18.354Z,9.42
2023-05-04T01:33:21.572Z,9.22
2023-05-04T01:38:25.625Z,9.11
2023-05-04T01:43:28.723Z,8.98
2023-05-04T01:48:31.695Z,8.95
2023-05-04T01:53:34.650Z,8.88
2023-05-04T01:58:37.770Z,8.75
2023-05-04T02:03:41.183Z,8.65
2023-05-04T02:08:44.221Z,8.56
2023-05-04T02:13:47.270Z,8.61
2023-05-04T02:18:50.297Z,8.61
2023-05-04T02:23:53.329Z,8.55
2023-05-04T02:28:56.664Z,8.49
2023-05-04T02:34:01.869Z,8.44
2023-05-04T02:39:04.837Z,8.45
2023-05-04T02:44:07.840Z,8.54
2023-05-04T02:49:11.570Z,8.62
2023-05-04T02:54:14.474Z,8.63
2023-05-04T02:59:17.497Z,8.52
2023-05-04T03:04:20.521Z,8.50
2023-05-04T03:09:23.500Z,8.41
2023-05-04T03:14:26.512Z,8.23
2023-05-04T03:19:29.589Z,8.07
2023-05-04T03:24:32.582Z,7.93
2023-05-04T03:29:36.058Z,7.80
2023-05-04T03:34:39.103Z,7.74
2023-05-04T03:39:42.278Z,7.73
2023-05-04T03:44:45.307Z,7.79
2023-05-04T03:49:48.308Z,8.21
2023-05-04T03:54:51.233Z,9.02
2023-05-04T03:59:57.072Z,9.57
2023-05-04T04:05:00.764Z,9.75
2023-05-04T04:10:04.032Z,9.74
2023-05-04T04:15:07.908Z,9.85
2023-05-04T04:20:12.992Z,10.03
2023-05-04T04:25:16.023Z,10.10
2023-05-04T04:30:19.101Z,10.14
2023-05-04T04:35:22.690Z,10.20
2023-05-04T04:40:25.605Z,10.68
2023-05-04T04:45:28.574Z,11.68
2023-05-04T04:50:32.367Z,12.36
2023-05-04T04:55:35.585Z,12.93
2023-05-04T05:00:38.593Z,13.24
2023-05-04T05:05:41.663Z,13.43
2023-05-04T05:10:44.661Z,13.61
2023-05-04T05:15:47.884Z,13.80
2023-05-04T05:20:51.176Z,14.03
2023-05-04T05:25:54.223Z,14.34
2023-05-04T05:30:57.535Z,14.57
2023-05-04T05:36:00.481Z,14.97
2023-05-04T05:41:03.542Z,15.13
2023-05-04T05:46:06.984Z,15.28
2023-05-04T05:51:10.037Z,15.34
2023-05-04T05:56:14.821Z,15.27
2023-05-04T06:01:18.673Z,15.41
2023-05-04T06:06:21.689Z,15.53
2023-05-04T06:11:24.628Z,15.69
2023-05-04T06:16:27.629Z,15.72
2023-05-04T06:21:30.658Z,15.76
2023-05-04T06:26:33.750Z,15.74
2023-05-04T06:31:36.792Z,15.76
2023-05-04T06:36:39.824Z,15.75
2023-05-04T06:41:42.914Z,15.76
2023-05-04T06:46:46.019Z,15.77
2023-05-04T06:51:48.960Z,15.68
2023-05-04T06:56:52.022Z,15.62
2023-05-04T07:01:54.967Z,15.53
2023-05-04T07:06:58.121Z,15.49
2023-05-04T07:12:01.484Z,15.45
2023-05-04T07:17:04.371Z,15.45
2023-05-04T07:22:07.515Z,15.39
2023-05-04T07:27:10.818Z,15.30
2023-05-04T07:32:13.985Z,15.22
2023-05-04T07:37:17.019Z,15.18
2023-05-04T07:42:20.619Z,15.07
2023-05-04T07:47:24.760Z,14.98
2023-05-04T07:52:27.845Z,14.86
2023-05-04T07:57:32.890Z,14.82
2023-05-04T08:02:36.215Z,14.83
2023-05-04T08:07:39.176Z,14.83
2023-05-04T08:12:42.391Z,14.81
2023-05-04T08:17:45.464Z,14.82
2023-05-04T08:22:48.677Z,14.80
2023-05-04T08:27:53.535Z,14.80
2023-05-04T08:32:56.662Z,14.78
2023-05-04T08:38:02.441Z,14.78
2023-05-04T08:43:06.011Z,14.73
2023-05-04T08:48:10.069Z,14.72
2023-05-04T08:53:18.662Z,14.68
2023-05-04T08:58:28.111Z,14.64
2023-05-04T09:03:31.651Z,14.63
2023-05-04T09:08:35.276Z,14.67
2023-05-04T09:13:38.821Z,14.69
2023-05-04T09:18:44.561Z,14.68
2023-05-04T09:23:51.721Z,14.74
2023-05-04T09:28:54.826Z,14.85
2023-05-04T09:33:57.912Z,14.85
2023-05-04T09:39:13.772Z,14.88
2023-05-04T09:44:22.524Z,14.96
2023-05-04T09:49:39.065Z,15.00
2023-05-04T09:54:45.817Z,15.00
2023-05-04T09:59:49.196Z,15.04
2023-05-04T10:04:52.338Z,15.07
2023-05-04T10:09:58.553Z,15.09
2023-05-04T10:15:01.995Z,15.09
2023-05-04T10:20:32.852Z,15.11
2023-05-04T10:26:00.637Z,15.18
2023-05-04T10:31:06.272Z,15.24
2023-05-04T10:36:10.850Z,15.30
2023-05-04T10:41:18.523Z,15.37
2023-05-04T10:46:24.069Z,15.46
2023-05-04T10:51:32.925Z,15.51
2023-05-04T10:56:41.972Z,15.55
2023-05-04T11:01:45.312Z,15.59
2023-05-04T11:07:01.408Z,15.58
2023-05-04T11:12:04.864Z,15.58
2023-05-04T11:22:20.464Z,15.56
2023-05-04T11:27:29.184Z,15.61
2023-05-04T11:32:44.112Z,15.67
2023-05-04T11:37:47.561Z,15.68
2023-05-04T11:42:51.487Z,15.71
2023-05-04T11:47:56.771Z,15.72
2023-05-04T11:53:13.957Z,15.71
2023-05-04T11:58:25.183Z,15.74
2023-05-04T12:03:53.183Z,15.76
2023-05-04T12:09:03.666Z,15.83
2023-05-04T12:14:17.253Z,15.90
2023-05-04T12:19:20.338Z,15.95
2023-05-04T12:24:25.015Z,16.00
2023-05-04T12:29:28.071Z,16.01
2023-05-04T12:34:31.272Z,16.06
2023-05-04T12:39:34.478Z,16.13
2023-05-04T12:44:37.442Z,16.17
2023-05-04T12:49:40.466Z,16.19
2023-05-04T12:54:43.487Z,16.23
2023-05-04T12:59:47.388Z,16.24
2023-05-04T13:04:50.441Z,16.26
2023-05-04T13:09:53.427Z,16.28
2023-05-04T13:14:58.074Z,16.28
2023-05-04T13:20:06.294Z,16.31
2023-05-04T13:25:09.856Z,16.33
2023-05-04T13:30:13.868Z,16.36
2023-05-04T13:35:16.887Z,16.39
2023-05-04T13:40:20.100Z,16.39
2023-05-04T13:45:23.768Z,16.41
2023-05-04T13:50:26.709Z,16.39
2023-05-04T13:55:29.767Z,16.45
2023-05-04T14:00:32.775Z,16.55
2023-05-04T14:05:35.885Z,16.57
2023-05-04T14:10:38.824Z,16.59
2023-05-04T14:15:42.561Z,16.61
2023-05-04T14:20:45.841Z,16.64
2023-05-04T14:25:57.040Z,16.67
2023-05-04T14:31:08.593Z,16.68
2023-05-04T14:36:11.758Z,16.63
2023-05-04T14:41:15.409Z,16.61
2023-05-04T14:46:18.696Z,16.61
2023-05-04T14:51:23.317Z,16.59
2023-05-04T14:56:28.107Z,16.57
2023-05-04T15:01:31.304Z,16.57
2023-05-04T15:06:34.281Z,16.60
2023-05-04T15:11:37.119Z,16.60
2023-05-04T15:16:39.903Z,16.59
2023-05-04T15:21:42.833Z,16.55
2023-05-04T15:26:45.837Z,16.50
2023-05-04T15:31:48.816Z,16.50
2023-05-04T15:36:52.206Z,16.46
2023-05-04T15:41:55.139Z,16.40
2023-05-04T15:47:00.731Z,16.33
2023-05-04T15:52:04.390Z,16.25
2023-05-04T15:57:07.861Z,16.18
2023-05-04T16:02:10.949Z,16.16
2023-05-04T16:07:13.957Z,16.10
2023-05-04T16:12:18.383Z,16.02
2023-05-04T16:17:22.852Z,15.99
2023-05-04T16:22:25.808Z,15.92
2023-05-04T16:27:29.100Z,15.82
2023-05-04T16:32:32.240Z,15.73
2023-05-04T16:37:38.168Z,15.66
2023-05-04T16:42:42.866Z,15.58
2023-05-04T16:47:45.931Z,15.52
2023-05-04T16:52:48.961Z,15.44
2023-05-04T16:57:51.893Z,15.35
2023-05-04T17:02:55.381Z,15.27
2023-05-04T17:07:58.518Z,15.23
2023-05-04T17:13:02.576Z,15.17
2023-05-04T17:18:05.751Z,15.10
2023-05-04T17:23:08.784Z,15.03
2023-05-04T17:28:13.065Z,14.92
2023-05-04T17:33:16.145Z,14.81
2023-05-04T17:38:19.101Z,14.67
2023-05-04T17:43:22.101Z,14.54
2023-05-04T17:48:25.248Z,14.46
2023-05-04T17:53:29.056Z,14.37
2023-05-04T17:58:32.299Z,14.26
2023-05-04T18:03:35.370Z,14.14
2023-05-04T18:08:38.399Z,14.05
2023-05-04T18:13:41.338Z,13.92
2023-05-04T18:18:45.190Z,13.83
2023-05-04T18:23:48.113Z,13.76
2023-05-04T18:28:51.084Z,13.68
2023-05-04T18:33:54.037Z,13.58
2023-05-04T18:38:58.950Z,13.47
2023-05-04T18:44:01.936Z,13.39
2023-05-04T18:49:04.895Z,13.32
2023-05-04T18:54:08.553Z,13.25
2023-05-04T18:59:11.516Z,13.17
2023-05-04T19:04:14.469Z,13.08
2023-05-04T19:09:17.615Z,13.01
2023-05-04T19:14:21.729Z,12.92
2023-05-04T19:19:26.089Z,12.85
2023-05-04T19:24:29.037Z,12.81
2023-05-04T19:29:32.097Z,12.71
2023-05-04T19:34:35.044Z,12.64
2023-05-04T19:39:37.989Z,12.57
2023-05-04T19:44:41.100Z,12.49
2023-05-04T19:49:47.825Z,12.42
2023-05-04T19:54:53.772Z,12.37
2023-05-04T19:59:57.563Z,12.34
2023-05-04T20:05:00.495Z,12.28
2023-05-04T20:10:04.203Z,12.25
2023-05-04T20:15:07.522Z,12.21
2023-05-04T20:20:11.276Z,12.17
2023-05-04T20:25:14.224Z,12.12
2023-05-04T20:30:18.089Z,12.06
2023-05-04T20:35:21.302Z,12.02
2023-05-04T20:40:24.719Z,11.99
2023-05-04T20:45:29.926Z,11.96
2023-05-04T20:50:32.950Z,11.82
2023-05-04T20:55:36.282Z,11.66
2023-05-04T21:00:40.219Z,11.64
2023-05-04T21:05:43.177Z,11.62
2023-05-04T21:10:46.581Z,11.58
2023-05-04T21:15:49.631Z,11.57
2023-05-04T21:20:52.664Z,11.54
2023-05-04T21:26:03.681Z,11.53
2023-05-04T21:31:08.425Z,11.52
2023-05-04T21:36:13.774Z,11.51
2023-05-04T21:41:17.210Z,11.49
2023-05-04T21:46:20.326Z,11.46
2023-05-04T21:51:23.297Z,11.44
2023-05-04T21:56:26.280Z,11.43
2023-05-04T22:01:29.487Z,11.38
2023-05-04T22:06:33.165Z,11.30
2023-05-04T22:11:36.083Z,11.24
2023-05-04T22:16:39.108Z,11.26
2023-05-04T22:21:42.083Z,11.24
2023-05-04T22:26:45.082Z,11.24
2023-05-04T22:31:48.058Z,11.16
2023-05-04T22:36:50.979Z,11.12
2023-05-04T22:41:53.912Z,11.11
2023-05-04T22:46:56.993Z,11.06
2023-05-04T22:52:00.407Z,11.06
2023-05-04T22:57:03.739Z,11.10
2023-05-04T23:02:07.046Z,11.14
2023-05-04T23:07:10.085Z,11.13
2023-05-04T23:12:13.962Z,11.10
2023-05-04T23:17:17.094Z,11.11
2023-05-04T23:22:20.039Z,11.10
2023-05-04T23:27:22.991Z,11.10
2023-05-04T23:32:26.005Z,11.09
2023-05-04T23:37:34.754Z,11.10
2023-05-04T23:42:37.735Z,11.03
2023-05-04T23:47:41.082Z,11.02
2023-05-04T23:52:44.763Z,11.02
2023-05-04T23:57:47.604Z,11.02
